sensor_id;sensor_type;location;lat;lon;timestamp;temperature;humidity
52895;DHT22;38759;53.396;6.722;2023-04-03T00:01:30;3.30;99.90
52895;DHT22;38759;53.396;6.722;2023-04-03T00:03:56;3.20;99.90
52895;DHT22;38759;53.396;6.722;2023-04-03T00:06:23;3.20;99.90
52895;DHT22;38759;53.396;6.722;2023-04-03T00:08:49;3.10;99.90
52895;DHT22;38759;53.396;6.722;2023-04-03T00:11:15;3.10;99.90
52895;DHT22;38759;53.396;6.722;2023-04-03T00:13:42;3.10;99.90
52895;DHT22;38759;53.396;6.722;2023-04-03T00:16:08;3.10;99.90
52895;DHT22;38759;53.396;6.722;2023-04-03T00:18:34;3.10;99.90
52895;DHT22;38759;53.396;6.722;2023-04-03T00:21:00;3.10;99.90
52895;DHT22;38759;53.396;6.722;2023-04-03T00:23:26;3.00;99.90
52895;DHT22;38759;53.396;6.722;2023-04-03T00:25:53;3.10;99.90
52895;DHT22;38759;53.396;6.722;2023-04-03T00:28:19;3.00;99.90
52895;DHT22;38759;53.396;6.722;2023-04-03T00:30:44;3.00;99.90
52895;DHT22;38759;53.396;6.722;2023-04-03T00:33:13;3.00;99.90
52895;DHT22;38759;53.396;6.722;2023-04-03T00:35:39;2.90;99.90
52895;DHT22;38759;53.396;6.722;2023-04-03T00:38:05;2.90;99.90
52895;DHT22;38759;53.396;6.722;2023-04-03T00:40:37;2.80;99.90
52895;DHT22;38759;53.396;6.722;2023-04-03T00:43:14;2.70;99.90
52895;DHT22;38759;53.396;6.722;2023-04-03T00:45:43;2.70;99.90
52895;DHT22;38759;53.396;6.722;2023-04-03T00:48:13;2.70;99.90
52895;DHT22;38759;53.396;6.722;2023-04-03T00:50:42;2.60;99.90
52895;DHT22;38759;53.396;6.722;2023-04-03T00:53:13;2.60;99.90
52895;DHT22;38759;53.396;6.722;2023-04-03T00:55:41;2.50;99.90
52895;DHT22;38759;53.396;6.722;2023-04-03T00:58:08;2.50;99.90
52895;DHT22;38759;53.396;6.722;2023-04-03T01:00:37;2.50;99.90
52895;DHT22;38759;53.396;6.722;2023-04-03T01:03:04;2.40;99.90
52895;DHT22;38759;53.396;6.722;2023-04-03T01:05:30;2.40;99.90
52895;DHT22;38759;53.396;6.722;2023-04-03T01:07:56;2.40;99.90
52895;DHT22;38759;53.396;6.722;2023-04-03T01:10:23;2.30;99.90
52895;DHT22;38759;53.396;6.722;2023-04-03T01:12:51;2.30;99.90
52895;DHT22;38759;53.396;6.722;2023-04-03T01:15:23;2.20;99.90
52895;DHT22;38759;53.396;6.722;2023-04-03T01:17:58;2.20;99.90
52895;DHT22;38759;53.396;6.722;2023-04-03T01:25:42;2.10;99.90
52895;DHT22;38759;53.396;6.722;2023-04-03T01:28:17;2.10;99.90
52895;DHT22;38759;53.396;6.722;2023-04-03T01:30:53;2.10;99.90
52895;DHT22;38759;53.396;6.722;2023-04-03T01:33:22;2.00;99.90
52895;DHT22;38759;53.396;6.722;2023-04-03T01:35:47;2.00;99.90
52895;DHT22;38759;53.396;6.722;2023-04-03T01:38:13;2.00;99.90
52895;DHT22;38759;53.396;6.722;2023-04-03T01:40:38;2.00;99.90
52895;DHT22;38759;53.396;6.722;2023-04-03T01:43:04;1.90;99.90
52895;DHT22;38759;53.396;6.722;2023-04-03T01:45:30;1.90;99.90
52895;DHT22;38759;53.396;6.722;2023-04-03T01:47:56;1.90;99.90
52895;DHT22;38759;53.396;6.722;2023-04-03T01:50:22;1.90;99.90
52895;DHT22;38759;53.396;6.722;2023-04-03T01:52:47;1.90;99.90
52895;DHT22;38759;53.396;6.722;2023-04-03T01:55:13;1.90;99.90
52895;DHT22;38759;53.396;6.722;2023-04-03T01:57:39;1.90;99.90
52895;DHT22;38759;53.396;6.722;2023-04-03T02:00:05;1.90;99.90
52895;DHT22;38759;53.396;6.722;2023-04-03T02:02:31;1.80;99.90
52895;DHT22;38759;53.396;6.722;2023-04-03T02:04:56;1.80;99.90
52895;DHT22;38759;53.396;6.722;2023-04-03T02:07:22;1.80;99.90
52895;DHT22;38759;53.396;6.722;2023-04-03T02:09:47;1.80;99.90
52895;DHT22;38759;53.396;6.722;2023-04-03T02:12:13;1.70;99.90
52895;DHT22;38759;53.396;6.722;2023-04-03T02:14:39;1.70;99.90
52895;DHT22;38759;53.396;6.722;2023-04-03T02:17:04;1.70;99.90
52895;DHT22;38759;53.396;6.722;2023-04-03T02:19:37;1.70;99.90
52895;DHT22;38759;53.396;6.722;2023-04-03T02:22:04;1.70;99.90
52895;DHT22;38759;53.396;6.722;2023-04-03T02:24:29;1.70;99.90
52895;DHT22;38759;53.396;6.722;2023-04-03T02:26:55;1.70;99.90
52895;DHT22;38759;53.396;6.722;2023-04-03T02:29:21;1.70;99.90
52895;DHT22;38759;53.396;6.722;2023-04-03T02:31:46;1.60;99.90
52895;DHT22;38759;53.396;6.722;2023-04-03T02:34:12;1.60;99.90
52895;DHT22;38759;53.396;6.722;2023-04-03T02:36:38;1.60;99.90
52895;DHT22;38759;53.396;6.722;2023-04-03T02:39:04;1.70;99.90
52895;DHT22;38759;53.396;6.722;2023-04-03T02:41:30;1.60;99.90
52895;DHT22;38759;53.396;6.722;2023-04-03T02:44:05;1.50;99.90
52895;DHT22;38759;53.396;6.722;2023-04-03T02:46:31;1.50;99.90
52895;DHT22;38759;53.396;6.722;2023-04-03T02:48:56;1.40;99.90
52895;DHT22;38759;53.396;6.722;2023-04-03T02:51:22;1.40;99.90
52895;DHT22;38759;53.396;6.722;2023-04-03T02:53:51;1.30;99.90
52895;DHT22;38759;53.396;6.722;2023-04-03T02:56:17;1.30;99.90
52895;DHT22;38759;53.396;6.722;2023-04-03T02:58:44;1.30;99.90
52895;DHT22;38759;53.396;6.722;2023-04-03T03:01:10;1.30;99.90
52895;DHT22;38759;53.396;6.722;2023-04-03T03:03:36;1.20;99.90
52895;DHT22;38759;53.396;6.722;2023-04-03T03:06:10;1.20;99.90
52895;DHT22;38759;53.396;6.722;2023-04-03T03:08:36;1.20;99.90
52895;DHT22;38759;53.396;6.722;2023-04-03T03:11:03;1.20;99.90
52895;DHT22;38759;53.396;6.722;2023-04-03T03:13:29;1.20;99.90
52895;DHT22;38759;53.396;6.722;2023-04-03T03:15:55;1.10;99.90
52895;DHT22;38759;53.396;6.722;2023-04-03T03:18:21;1.10;99.90
52895;DHT22;38759;53.396;6.722;2023-04-03T03:20:54;1.10;99.90
52895;DHT22;38759;53.396;6.722;2023-04-03T03:23:21;1.10;99.90
52895;DHT22;38759;53.396;6.722;2023-04-03T03:25:47;1.10;99.90
52895;DHT22;38759;53.396;6.722;2023-04-03T03:28:13;1.10;99.90
52895;DHT22;38759;53.396;6.722;2023-04-03T03:30:38;1.20;99.90
52895;DHT22;38759;53.396;6.722;2023-04-03T03:33:04;1.20;99.90
52895;DHT22;38759;53.396;6.722;2023-04-03T03:35:30;1.20;99.90
52895;DHT22;38759;53.396;6.722;2023-04-03T03:37:56;1.30;99.90
52895;DHT22;38759;53.396;6.722;2023-04-03T03:40:21;1.20;99.90
52895;DHT22;38759;53.396;6.722;2023-04-03T03:42:47;1.10;99.90
52895;DHT22;38759;53.396;6.722;2023-04-03T03:45:13;1.10;99.90
52895;DHT22;38759;53.396;6.722;2023-04-03T03:47:39;1.10;99.90
52895;DHT22;38759;53.396;6.722;2023-04-03T03:50:06;1.10;99.90
52895;DHT22;38759;53.396;6.722;2023-04-03T03:52:31;1.00;99.90
52895;DHT22;38759;53.396;6.722;2023-04-03T03:54:57;1.00;99.90
52895;DHT22;38759;53.396;6.722;2023-04-03T03:57:23;1.00;99.90
52895;DHT22;38759;53.396;6.722;2023-04-03T03:59:48;1.00;99.90
52895;DHT22;38759;53.396;6.722;2023-04-03T04:02:15;1.00;99.90
52895;DHT22;38759;53.396;6.722;2023-04-03T04:04:41;0.90;99.90
52895;DHT22;38759;53.396;6.722;2023-04-03T04:07:07;1.00;99.90
52895;DHT22;38759;53.396;6.722;2023-04-03T04:09:33;1.00;99.90
52895;DHT22;38759;53.396;6.722;2023-04-03T04:11:58;0.90;99.90
52895;DHT22;38759;53.396;6.722;2023-04-03T04:14:24;0.90;99.90
52895;DHT22;38759;53.396;6.722;2023-04-03T04:16:50;0.90;99.90
52895;DHT22;38759;53.396;6.722;2023-04-03T04:19:15;0.90;99.90
52895;DHT22;38759;53.396;6.722;2023-04-03T04:21:41;0.90;99.90
52895;DHT22;38759;53.396;6.722;2023-04-03T04:24:07;0.80;99.90
52895;DHT22;38759;53.396;6.722;2023-04-03T04:26:33;0.80;99.90
52895;DHT22;38759;53.396;6.722;2023-04-03T04:29:00;0.80;99.90
52895;DHT22;38759;53.396;6.722;2023-04-03T04:31:26;0.70;99.90
52895;DHT22;38759;53.396;6.722;2023-04-03T04:33:52;0.60;99.90
52895;DHT22;38759;53.396;6.722;2023-04-03T04:36:18;0.70;99.90
52895;DHT22;38759;53.396;6.722;2023-04-03T04:38:43;0.70;99.90
52895;DHT22;38759;53.396;6.722;2023-04-03T04:41:09;0.70;99.90
52895;DHT22;38759;53.396;6.722;2023-04-03T04:43:35;0.70;99.90
52895;DHT22;38759;53.396;6.722;2023-04-03T04:46:06;0.80;99.90
52895;DHT22;38759;53.396;6.722;2023-04-03T04:48:33;0.70;99.90
52895;DHT22;38759;53.396;6.722;2023-04-03T04:50:58;0.60;99.90
52895;DHT22;38759;53.396;6.722;2023-04-03T04:53:24;0.60;99.90
52895;DHT22;38759;53.396;6.722;2023-04-03T04:55:51;0.70;99.90
52895;DHT22;38759;53.396;6.722;2023-04-03T04:58:17;0.70;99.90
52895;DHT22;38759;53.396;6.722;2023-04-03T05:00:43;0.70;99.90
52895;DHT22;38759;53.396;6.722;2023-04-03T05:03:09;0.70;99.90
52895;DHT22;38759;53.396;6.722;2023-04-03T05:05:34;0.60;99.90
52895;DHT22;38759;53.396;6.722;2023-04-03T05:08:01;0.60;99.90
52895;DHT22;38759;53.396;6.722;2023-04-03T05:10:27;0.60;99.90
52895;DHT22;38759;53.396;6.722;2023-04-03T05:12:53;0.60;99.90
52895;DHT22;38759;53.396;6.722;2023-04-03T05:15:19;0.60;99.90
52895;DHT22;38759;53.396;6.722;2023-04-03T05:17:45;0.50;99.90
52895;DHT22;38759;53.396;6.722;2023-04-03T05:20:11;0.50;99.90
52895;DHT22;38759;53.396;6.722;2023-04-03T05:22:37;0.50;99.90
52895;DHT22;38759;53.396;6.722;2023-04-03T05:25:04;0.50;99.90
52895;DHT22;38759;53.396;6.722;2023-04-03T05:27:29;0.50;99.90
52895;DHT22;38759;53.396;6.722;2023-04-03T05:29:55;0.50;99.90
52895;DHT22;38759;53.396;6.722;2023-04-03T05:32:22;0.40;99.90
52895;DHT22;38759;53.396;6.722;2023-04-03T05:34:48;0.40;99.90
52895;DHT22;38759;53.396;6.722;2023-04-03T05:37:13;0.40;99.90
52895;DHT22;38759;53.396;6.722;2023-04-03T05:39:39;0.40;99.90
52895;DHT22;38759;53.396;6.722;2023-04-03T05:42:07;0.40;99.90
52895;DHT22;38759;53.396;6.722;2023-04-03T05:44:33;0.50;99.90
52895;DHT22;38759;53.396;6.722;2023-04-03T05:46:59;0.50;99.90
52895;DHT22;38759;53.396;6.722;2023-04-03T05:49:24;0.50;99.90
52895;DHT22;38759;53.396;6.722;2023-04-03T05:51:50;0.50;99.90
52895;DHT22;38759;53.396;6.722;2023-04-03T05:54:25;0.50;99.90
52895;DHT22;38759;53.396;6.722;2023-04-03T05:56:51;0.60;99.90
52895;DHT22;38759;53.396;6.722;2023-04-03T05:59:17;0.60;99.90
52895;DHT22;38759;53.396;6.722;2023-04-03T06:01:44;0.60;99.90
52895;DHT22;38759;53.396;6.722;2023-04-03T06:04:10;0.70;99.90
52895;DHT22;38759;53.396;6.722;2023-04-03T06:06:49;0.80;99.90
52895;DHT22;38759;53.396;6.722;2023-04-03T06:09:18;0.80;99.90
52895;DHT22;38759;53.396;6.722;2023-04-03T06:11:44;0.80;99.90
52895;DHT22;38759;53.396;6.722;2023-04-03T06:14:10;0.90;99.90
52895;DHT22;38759;53.396;6.722;2023-04-03T06:16:36;1.00;99.90
52895;DHT22;38759;53.396;6.722;2023-04-03T06:19:02;0.90;99.90
52895;DHT22;38759;53.396;6.722;2023-04-03T06:21:29;0.90;99.90
52895;DHT22;38759;53.396;6.722;2023-04-03T06:23:55;1.00;99.90
52895;DHT22;38759;53.396;6.722;2023-04-03T06:26:21;1.10;99.90
52895;DHT22;38759;53.396;6.722;2023-04-03T06:28:47;1.10;99.90
52895;DHT22;38759;53.396;6.722;2023-04-03T06:31:13;1.20;99.90
52895;DHT22;38759;53.396;6.722;2023-04-03T06:33:39;1.20;99.90
52895;DHT22;38759;53.396;6.722;2023-04-03T06:36:05;1.30;99.90
52895;DHT22;38759;53.396;6.722;2023-04-03T06:38:32;1.40;99.90
52895;DHT22;38759;53.396;6.722;2023-04-03T06:40:59;1.40;99.90
52895;DHT22;38759;53.396;6.722;2023-04-03T06:43:25;1.50;99.90
52895;DHT22;38759;53.396;6.722;2023-04-03T06:45:51;1.60;99.90
52895;DHT22;38759;53.396;6.722;2023-04-03T06:48:17;1.60;99.90
52895;DHT22;38759;53.396;6.722;2023-04-03T06:50:43;1.70;99.90
52895;DHT22;38759;53.396;6.722;2023-04-03T06:53:09;1.70;99.90
52895;DHT22;38759;53.396;6.722;2023-04-03T06:55:35;1.80;99.90
52895;DHT22;38759;53.396;6.722;2023-04-03T06:58:01;1.90;99.90
52895;DHT22;38759;53.396;6.722;2023-04-03T07:00:27;1.90;99.90
52895;DHT22;38759;53.396;6.722;2023-04-03T07:02:53;2.00;99.90
52895;DHT22;38759;53.396;6.722;2023-04-03T07:05:18;2.00;99.90
52895;DHT22;38759;53.396;6.722;2023-04-03T07:07:44;2.10;99.90
52895;DHT22;38759;53.396;6.722;2023-04-03T07:10:10;2.20;99.90
52895;DHT22;38759;53.396;6.722;2023-04-03T07:12:37;2.20;99.90
52895;DHT22;38759;53.396;6.722;2023-04-03T07:15:04;2.30;99.90
52895;DHT22;38759;53.396;6.722;2023-04-03T07:17:31;2.40;99.90
52895;DHT22;38759;53.396;6.722;2023-04-03T07:19:56;2.40;99.90
52895;DHT22;38759;53.396;6.722;2023-04-03T07:22:22;2.50;99.90
52895;DHT22;38759;53.396;6.722;2023-04-03T07:24:48;2.50;99.90
52895;DHT22;38759;53.396;6.722;2023-04-03T07:27:13;2.60;99.90
52895;DHT22;38759;53.396;6.722;2023-04-03T07:29:39;2.60;99.90
52895;DHT22;38759;53.396;6.722;2023-04-03T07:32:05;2.60;99.90
52895;DHT22;38759;53.396;6.722;2023-04-03T07:34:32;2.70;99.90
52895;DHT22;38759;53.396;6.722;2023-04-03T07:36:58;2.80;99.90
52895;DHT22;38759;53.396;6.722;2023-04-03T07:39:24;2.80;99.90
52895;DHT22;38759;53.396;6.722;2023-04-03T07:41:50;2.90;99.90
52895;DHT22;38759;53.396;6.722;2023-04-03T07:44:16;2.90;99.90
52895;DHT22;38759;53.396;6.722;2023-04-03T07:46:42;3.00;99.90
52895;DHT22;38759;53.396;6.722;2023-04-03T07:49:08;3.00;99.90
52895;DHT22;38759;53.396;6.722;2023-04-03T07:51:33;3.10;99.90
52895;DHT22;38759;53.396;6.722;2023-04-03T07:54:00;3.20;99.90
52895;DHT22;38759;53.396;6.722;2023-04-03T07:56:25;3.30;99.90
52895;DHT22;38759;53.396;6.722;2023-04-03T07:58:51;3.40;99.90
52895;DHT22;38759;53.396;6.722;2023-04-03T08:01:17;3.60;99.90
52895;DHT22;38759;53.396;6.722;2023-04-03T08:03:42;3.60;99.90
52895;DHT22;38759;53.396;6.722;2023-04-03T08:06:09;3.70;99.90
52895;DHT22;38759;53.396;6.722;2023-04-03T08:08:35;3.70;99.90
52895;DHT22;38759;53.396;6.722;2023-04-03T08:11:01;3.80;99.90
52895;DHT22;38759;53.396;6.722;2023-04-03T08:13:28;3.90;99.90
52895;DHT22;38759;53.396;6.722;2023-04-03T08:15:54;4.00;99.90
52895;DHT22;38759;53.396;6.722;2023-04-03T08:18:21;4.10;99.90
52895;DHT22;38759;53.396;6.722;2023-04-03T08:20:50;4.20;99.90
52895;DHT22;38759;53.396;6.722;2023-04-03T08:23:17;4.30;99.90
52895;DHT22;38759;53.396;6.722;2023-04-03T08:25:44;4.40;99.90
52895;DHT22;38759;53.396;6.722;2023-04-03T08:28:11;4.60;99.90
52895;DHT22;38759;53.396;6.722;2023-04-03T08:30:39;4.80;99.90
52895;DHT22;38759;53.396;6.722;2023-04-03T08:33:05;4.80;99.90
52895;DHT22;38759;53.396;6.722;2023-04-03T08:35:31;5.00;99.90
52895;DHT22;38759;53.396;6.722;2023-04-03T08:37:57;5.10;99.90
52895;DHT22;38759;53.396;6.722;2023-04-03T08:40:23;5.30;99.90
52895;DHT22;38759;53.396;6.722;2023-04-03T08:43:22;5.30;99.90
52895;DHT22;38759;53.396;6.722;2023-04-03T08:45:55;5.30;99.90
52895;DHT22;38759;53.396;6.722;2023-04-03T08:48:29;5.40;99.90
52895;DHT22;38759;53.396;6.722;2023-04-03T08:51:03;5.50;99.90
52895;DHT22;38759;53.396;6.722;2023-04-03T08:53:34;5.50;99.90
52895;DHT22;38759;53.396;6.722;2023-04-03T08:56:05;5.50;99.90
52895;DHT22;38759;53.396;6.722;2023-04-03T08:58:46;5.60;99.90
52895;DHT22;38759;53.396;6.722;2023-04-03T09:01:29;5.70;99.90
52895;DHT22;38759;53.396;6.722;2023-04-03T09:03:57;5.70;99.90
52895;DHT22;38759;53.396;6.722;2023-04-03T09:06:27;5.70;99.90
52895;DHT22;38759;53.396;6.722;2023-04-03T09:11:41;5.90;99.90
52895;DHT22;38759;53.396;6.722;2023-04-03T09:18:13;5.90;99.90
52895;DHT22;38759;53.396;6.722;2023-04-03T09:22:50;6.10;99.90
52895;DHT22;38759;53.396;6.722;2023-04-03T09:25:27;6.20;99.90
52895;DHT22;38759;53.396;6.722;2023-04-03T09:27:53;6.30;99.90
52895;DHT22;38759;53.396;6.722;2023-04-03T09:30:24;6.40;99.90
52895;DHT22;38759;53.396;6.722;2023-04-03T09:32:52;6.70;99.90
52895;DHT22;38759;53.396;6.722;2023-04-03T09:35:29;6.70;99.90
52895;DHT22;38759;53.396;6.722;2023-04-03T09:38:19;6.80;99.90
52895;DHT22;38759;53.396;6.722;2023-04-03T09:40:51;7.00;99.90
52895;DHT22;38759;53.396;6.722;2023-04-03T09:43:31;7.20;99.90
52895;DHT22;38759;53.396;6.722;2023-04-03T09:46:18;7.30;99.90
52895;DHT22;38759;53.396;6.722;2023-04-03T09:48:51;7.50;99.90
52895;DHT22;38759;53.396;6.722;2023-04-03T09:51:17;7.60;99.90
52895;DHT22;38759;53.396;6.722;2023-04-03T09:53:44;7.80;99.90
52895;DHT22;38759;53.396;6.722;2023-04-03T10:01:32;8.30;99.90
52895;DHT22;38759;53.396;6.722;2023-04-03T10:06:32;8.80;99.90
52895;DHT22;38759;53.396;6.722;2023-04-03T10:09:14;8.90;99.90
52895;DHT22;38759;53.396;6.722;2023-04-03T10:11:58;9.10;99.90
52895;DHT22;38759;53.396;6.722;2023-04-03T10:14:26;9.20;99.90
52895;DHT22;38759;53.396;6.722;2023-04-03T10:19:55;9.50;99.90
52895;DHT22;38759;53.396;6.722;2023-04-03T10:25:28;9.80;99.90
52895;DHT22;38759;53.396;6.722;2023-04-03T10:28:01;9.90;99.90
52895;DHT22;38759;53.396;6.722;2023-04-03T10:33:32;10.30;99.90
52895;DHT22;38759;53.396;6.722;2023-04-03T10:50:36;11.20;99.90
52895;DHT22;38759;53.396;6.722;2023-04-03T10:53:19;11.40;99.90
52895;DHT22;38759;53.396;6.722;2023-04-03T10:58:50;11.70;99.90
52895;DHT22;38759;53.396;6.722;2023-04-03T11:01:23;11.80;99.90
52895;DHT22;38759;53.396;6.722;2023-04-03T11:03:56;11.80;99.90
52895;DHT22;38759;53.396;6.722;2023-04-03T11:06:25;12.00;99.90
52895;DHT22;38759;53.396;6.722;2023-04-03T11:08:58;12.10;99.90
52895;DHT22;38759;53.396;6.722;2023-04-03T11:11:32;12.20;99.90
52895;DHT22;38759;53.396;6.722;2023-04-03T11:19:35;12.40;99.90
52895;DHT22;38759;53.396;6.722;2023-04-03T11:22:30;12.50;99.90
52895;DHT22;38759;53.396;6.722;2023-04-03T11:28:06;12.80;99.90
52895;DHT22;38759;53.396;6.722;2023-04-03T11:30:46;12.90;99.70
52895;DHT22;38759;53.396;6.722;2023-04-03T11:36:17;13.10;99.70
52895;DHT22;38759;53.396;6.722;2023-04-03T11:38:46;13.20;99.90
52895;DHT22;38759;53.396;6.722;2023-04-03T11:41:13;13.20;98.80
52895;DHT22;38759;53.396;6.722;2023-04-03T11:44:03;13.30;99.10
52895;DHT22;38759;53.396;6.722;2023-04-03T11:47:02;13.30;97.40
52895;DHT22;38759;53.396;6.722;2023-04-03T11:50:04;13.40;98.00
52895;DHT22;38759;53.396;6.722;2023-04-03T12:14:12;14.60;96.30
52895;DHT22;38759;53.396;6.722;2023-04-03T12:26:46;14.90;96.80
52895;DHT22;38759;53.396;6.722;2023-04-03T12:29:33;14.70;96.30
52895;DHT22;38759;53.396;6.722;2023-04-03T12:48:14;14.30;96.00
52895;DHT22;38759;53.396;6.722;2023-04-03T12:50:41;14.20;95.70
52895;DHT22;38759;53.396;6.722;2023-04-03T12:53:27;14.30;96.00
52895;DHT22;38759;53.396;6.722;2023-04-03T12:55:57;14.30;95.70
52895;DHT22;38759;53.396;6.722;2023-04-03T12:58:27;14.30;94.70
52895;DHT22;38759;53.396;6.722;2023-04-03T13:01:11;14.20;94.60
52895;DHT22;38759;53.396;6.722;2023-04-03T13:03:39;14.20;94.40
52895;DHT22;38759;53.396;6.722;2023-04-03T13:06:06;14.30;94.30
52895;DHT22;38759;53.396;6.722;2023-04-03T13:08:32;14.40;95.00
52895;DHT22;38759;53.396;6.722;2023-04-03T13:11:11;14.50;95.30
52895;DHT22;38759;53.396;6.722;2023-04-03T13:13:37;14.50;94.30
52895;DHT22;38759;53.396;6.722;2023-04-03T13:16:09;14.40;95.30
52895;DHT22;38759;53.396;6.722;2023-04-03T13:18:37;14.40;95.60
52895;DHT22;38759;53.396;6.722;2023-04-03T13:21:11;14.40;95.40
52895;DHT22;38759;53.396;6.722;2023-04-03T13:23:43;14.40;95.00
52895;DHT22;38759;53.396;6.722;2023-04-03T13:26:11;14.30;94.30
52895;DHT22;38759;53.396;6.722;2023-04-03T13:28:39;14.30;94.40
52895;DHT22;38759;53.396;6.722;2023-04-03T13:33:43;14.20;93.70
52895;DHT22;38759;53.396;6.722;2023-04-03T13:36:29;14.20;94.80
52895;DHT22;38759;53.396;6.722;2023-04-03T13:39:19;14.20;94.80
52895;DHT22;38759;53.396;6.722;2023-04-03T13:41:58;14.30;95.50
52895;DHT22;38759;53.396;6.722;2023-04-03T13:44:34;14.20;95.60
52895;DHT22;38759;53.396;6.722;2023-04-03T13:47:19;14.20;96.00
52895;DHT22;38759;53.396;6.722;2023-04-03T13:50:03;14.10;95.30
52895;DHT22;38759;53.396;6.722;2023-04-03T13:52:41;13.80;95.50
52895;DHT22;38759;53.396;6.722;2023-04-03T14:02:56;13.50;96.20
52895;DHT22;38759;53.396;6.722;2023-04-03T14:05:22;13.30;96.20
52895;DHT22;38759;53.396;6.722;2023-04-03T14:07:50;13.20;96.60
52895;DHT22;38759;53.396;6.722;2023-04-03T14:10:16;13.20;96.80
52895;DHT22;38759;53.396;6.722;2023-04-03T14:12:42;13.20;96.80
52895;DHT22;38759;53.396;6.722;2023-04-03T14:15:22;13.20;96.80
52895;DHT22;38759;53.396;6.722;2023-04-03T14:17:50;13.20;95.60
52895;DHT22;38759;53.396;6.722;2023-04-03T14:20:19;13.10;96.30
52895;DHT22;38759;53.396;6.722;2023-04-03T14:22:46;13.20;96.10
52895;DHT22;38759;53.396;6.722;2023-04-03T14:25:11;13.20;95.50
52895;DHT22;38759;53.396;6.722;2023-04-03T14:27:40;13.20;94.90
52895;DHT22;38759;53.396;6.722;2023-04-03T14:30:11;13.10;95.60
52895;DHT22;38759;53.396;6.722;2023-04-03T14:32:38;13.20;95.40
52895;DHT22;38759;53.396;6.722;2023-04-03T14:35:04;13.10;95.40
52895;DHT22;38759;53.396;6.722;2023-04-03T14:37:30;13.10;95.00
52895;DHT22;38759;53.396;6.722;2023-04-03T14:39:59;13.10;94.30
52895;DHT22;38759;53.396;6.722;2023-04-03T14:42:31;13.00;94.10
52895;DHT22;38759;53.396;6.722;2023-04-03T14:44:58;13.00;94.20
52895;DHT22;38759;53.396;6.722;2023-04-03T14:47:27;13.00;94.60
52895;DHT22;38759;53.396;6.722;2023-04-03T14:49:53;13.10;94.40
52895;DHT22;38759;53.396;6.722;2023-04-03T14:52:30;13.10;94.50
52895;DHT22;38759;53.396;6.722;2023-04-03T14:54:57;13.00;93.20
52895;DHT22;38759;53.396;6.722;2023-04-03T14:57:25;12.90;94.10
52895;DHT22;38759;53.396;6.722;2023-04-03T14:59:52;12.90;94.30
52895;DHT22;38759;53.396;6.722;2023-04-03T15:04:46;12.70;94.50
52895;DHT22;38759;53.396;6.722;2023-04-03T15:07:11;12.60;94.70
52895;DHT22;38759;53.396;6.722;2023-04-03T15:09:37;12.50;95.00
52895;DHT22;38759;53.396;6.722;2023-04-03T15:12:03;12.40;94.40
52895;DHT22;38759;53.396;6.722;2023-04-03T15:14:29;12.30;94.50
52895;DHT22;38759;53.396;6.722;2023-04-03T15:16:54;12.20;94.90
52895;DHT22;38759;53.396;6.722;2023-04-03T15:19:20;12.20;95.00
52895;DHT22;38759;53.396;6.722;2023-04-03T15:21:46;12.20;95.70
52895;DHT22;38759;53.396;6.722;2023-04-03T15:24:11;12.20;95.00
52895;DHT22;38759;53.396;6.722;2023-04-03T15:26:37;12.10;95.20
52895;DHT22;38759;53.396;6.722;2023-04-03T15:29:04;12.00;95.90
52895;DHT22;38759;53.396;6.722;2023-04-03T15:31:30;11.90;96.20
52895;DHT22;38759;53.396;6.722;2023-04-03T15:33:56;11.90;96.30
52895;DHT22;38759;53.396;6.722;2023-04-03T15:36:22;11.90;96.30
52895;DHT22;38759;53.396;6.722;2023-04-03T15:38:48;11.90;95.60
52895;DHT22;38759;53.396;6.722;2023-04-03T15:41:13;11.80;96.00
52895;DHT22;38759;53.396;6.722;2023-04-03T15:43:39;11.60;95.80
52895;DHT22;38759;53.396;6.722;2023-04-03T15:46:05;11.70;95.90
52895;DHT22;38759;53.396;6.722;2023-04-03T15:48:31;11.70;96.70
52895;DHT22;38759;53.396;6.722;2023-04-03T15:50:57;11.70;96.70
52895;DHT22;38759;53.396;6.722;2023-04-03T15:53:22;11.70;96.50
52895;DHT22;38759;53.396;6.722;2023-04-03T15:55:48;11.60;96.30
52895;DHT22;38759;53.396;6.722;2023-04-03T15:58:14;11.50;96.60
52895;DHT22;38759;53.396;6.722;2023-04-03T16:00:40;11.50;96.50
52895;DHT22;38759;53.396;6.722;2023-04-03T16:03:10;11.40;96.50
52895;DHT22;38759;53.396;6.722;2023-04-03T16:05:37;11.10;96.10
52895;DHT22;38759;53.396;6.722;2023-04-03T16:08:04;10.90;97.20
52895;DHT22;38759;53.396;6.722;2023-04-03T16:10:31;10.80;97.50
52895;DHT22;38759;53.396;6.722;2023-04-03T16:12:56;10.70;97.70
52895;DHT22;38759;53.396;6.722;2023-04-03T16:15:23;10.60;97.50
52895;DHT22;38759;53.396;6.722;2023-04-03T16:17:50;10.60;98.10
52895;DHT22;38759;53.396;6.722;2023-04-03T16:20:16;10.30;98.20
52895;DHT22;38759;53.396;6.722;2023-04-03T16:22:42;10.30;98.60
52895;DHT22;38759;53.396;6.722;2023-04-03T16:25:08;10.20;98.90
52895;DHT22;38759;53.396;6.722;2023-04-03T16:27:35;10.10;99.10
52895;DHT22;38759;53.396;6.722;2023-04-03T16:30:01;10.00;99.60
52895;DHT22;38759;53.396;6.722;2023-04-03T16:32:29;9.80;99.90
52895;DHT22;38759;53.396;6.722;2023-04-03T16:34:56;9.80;99.90
52895;DHT22;38759;53.396;6.722;2023-04-03T16:37:22;9.60;99.90
52895;DHT22;38759;53.396;6.722;2023-04-03T16:39:47;9.50;99.90
52895;DHT22;38759;53.396;6.722;2023-04-03T16:42:13;9.40;99.90
52895;DHT22;38759;53.396;6.722;2023-04-03T16:44:39;9.40;99.90
52895;DHT22;38759;53.396;6.722;2023-04-03T16:47:06;9.30;99.90
52895;DHT22;38759;53.396;6.722;2023-04-03T16:49:33;9.10;99.90
52895;DHT22;38759;53.396;6.722;2023-04-03T16:52:03;9.10;99.90
52895;DHT22;38759;53.396;6.722;2023-04-03T16:54:30;9.00;99.90
52895;DHT22;38759;53.396;6.722;2023-04-03T16:56:56;8.90;99.90
52895;DHT22;38759;53.396;6.722;2023-04-03T16:59:22;8.80;99.90
52895;DHT22;38759;53.396;6.722;2023-04-03T17:01:48;8.70;99.90
52895;DHT22;38759;53.396;6.722;2023-04-03T17:04:13;8.70;99.90
52895;DHT22;38759;53.396;6.722;2023-04-03T17:06:39;8.60;99.90
52895;DHT22;38759;53.396;6.722;2023-04-03T17:09:06;8.60;99.90
52895;DHT22;38759;53.396;6.722;2023-04-03T17:11:32;8.50;99.90
52895;DHT22;38759;53.396;6.722;2023-04-03T17:13:58;8.30;99.90
52895;DHT22;38759;53.396;6.722;2023-04-03T17:16:24;8.20;99.90
52895;DHT22;38759;53.396;6.722;2023-04-03T17:18:52;8.10;99.90
52895;DHT22;38759;53.396;6.722;2023-04-03T17:21:19;8.00;99.90
52895;DHT22;38759;53.396;6.722;2023-04-03T17:23:48;7.90;99.90
52895;DHT22;38759;53.396;6.722;2023-04-03T17:26:14;7.80;99.90
52895;DHT22;38759;53.396;6.722;2023-04-03T17:28:40;7.70;99.90
52895;DHT22;38759;53.396;6.722;2023-04-03T17:31:07;7.60;99.90
52895;DHT22;38759;53.396;6.722;2023-04-03T17:33:33;7.50;99.90
52895;DHT22;38759;53.396;6.722;2023-04-03T17:36:01;7.40;99.90
52895;DHT22;38759;53.396;6.722;2023-04-03T17:38:29;7.30;99.90
52895;DHT22;38759;53.396;6.722;2023-04-03T17:40:59;7.30;99.90
52895;DHT22;38759;53.396;6.722;2023-04-03T17:43:25;7.20;99.90
52895;DHT22;38759;53.396;6.722;2023-04-03T17:45:51;7.10;99.90
52895;DHT22;38759;53.396;6.722;2023-04-03T17:48:17;7.00;99.90
52895;DHT22;38759;53.396;6.722;2023-04-03T17:50:43;6.90;99.90